Time;durP1;ratioP1;P1;durP2;ratioP2;P2;SDS_P1;SDS_P2;PMS_P1;PMS_P2;Temp;Humidity;BMP_temperature;BMP_pressure;BME280_temperature;BME280_humidity;BME280_pressure;Samples;Min_cycle;Max_cycle;Signal;HPM_P1;HPM_P2
2021/10/05 04:51:00;;;;;;;;;;;12.80;99.90;;;;;;5478771;23;20391;-89
2021/10/05 04:53:27;;;;;;;;;;;12.90;99.90;;;;;;4916766;29;20379;-88
2021/10/05 04:55:54;;;;;;;;;;;12.90;99.90;;;;;;4918147;29;20379;-87
2021/10/05 04:58:22;;;;;;;;;;;12.90;99.90;;;;;;4916557;29;19927;-88
2021/10/05 05:00:50;;;;;;;;;;;12.90;99.90;;;;;;4916074;29;19978;-89
2021/10/05 05:03:17;;;;;;;;;;;12.80;99.90;;;;;;4917332;29;19929;-88
2021/10/05 05:05:44;;;;;;;;;;;12.80;99.90;;;;;;4902508;29;20298;-87
2021/10/05 05:08:11;;;;;;;;;;;12.80;99.90;;;;;;4918810;29;19923;-88
2021/10/05 05:10:38;;;;;;;;;;;12.70;99.90;;;;;;4918857;29;19927;-88
2021/10/05 05:13:05;;;;;;;;;;;12.70;99.90;;;;;;4883686;29;19983;-87
2021/10/05 05:15:32;;;;;;;;;;;12.70;99.90;;;;;;4900407;29;19927;-89
2021/10/05 05:17:59;;;;;;;;;;;12.60;99.90;;;;;;4900773;29;19956;-88
2021/10/05 05:20:26;;;;;;;;;;;12.60;99.90;;;;;;4904791;29;19926;-87
2021/10/05 05:22:53;;;;;;;;;;;12.60;99.90;;;;;;4902748;29;19923;-89
2021/10/05 05:25:22;;;;;;;;;;;12.50;99.90;;;;;;4918550;29;19930;-88
2021/10/05 05:27:49;;;;;;;;;;;12.50;99.90;;;;;;4918955;29;19981;-90
2021/10/05 05:30:15;;;;;;;;;;;12.50;99.90;;;;;;4918381;29;19927;-88
2021/10/05 05:32:43;;;;;;;;;;;12.50;99.90;;;;;;4918598;29;19927;-90
2021/10/05 05:35:09;;;;;;;;;;;12.50;99.90;;;;;;4917974;29;19923;-87
2021/10/05 05:37:36;;;;;;;;;;;12.50;99.90;;;;;;4918578;29;19927;-88
2021/10/05 05:40:03;;;;;;;;;;;12.60;99.90;;;;;;4884733;29;20404;-87
2021/10/05 05:42:30;;;;;;;;;;;12.50;99.90;;;;;;4912719;29;19927;-87
2021/10/05 05:44:57;;;;;;;;;;;12.50;99.90;;;;;;4918764;29;20022;-89
2021/10/05 05:47:24;;;;;;;;;;;12.50;99.90;;;;;;4918291;29;19923;-91
2021/10/05 05:49:51;;;;;;;;;;;12.50;99.90;;;;;;4918405;29;19923;-89
2021/10/05 05:52:18;;;;;;;;;;;12.50;99.90;;;;;;4899546;29;19954;-91
2021/10/05 05:54:45;;;;;;;;;;;12.50;99.90;;;;;;4914453;29;19931;-85
2021/10/05 05:57:12;;;;;;;;;;;12.50;99.90;;;;;;4917345;29;19923;-92
2021/10/05 05:59:39;;;;;;;;;;;12.50;99.90;;;;;;4918459;29;20361;-89
2021/10/05 17:03:32;;;;;;;;;;;14.60;99.90;;;;;;4891170;29;19934;-82
2021/10/05 17:05:58;;;;;;;;;;;14.50;99.90;;;;;;4894737;29;19931;-83
2021/10/05 17:08:25;;;;;;;;;;;14.50;99.90;;;;;;4896316;29;19924;-83
2021/10/05 17:10:52;;;;;;;;;;;14.50;99.90;;;;;;4895135;29;19995;-83
2021/10/05 17:13:19;;;;;;;;;;;14.40;99.90;;;;;;4894013;29;19974;-82
2021/10/05 17:15:46;;;;;;;;;;;14.40;99.90;;;;;;4890913;29;19935;-82
2021/10/05 17:18:15;;;;;;;;;;;14.40;99.90;;;;;;4886961;29;20022;-82
2021/10/05 17:20:44;;;;;;;;;;;14.40;99.90;;;;;;4855675;29;19931;-82
2021/10/05 17:23:11;;;;;;;;;;;14.30;99.90;;;;;;4880124;29;19954;-83
2021/10/05 17:25:38;;;;;;;;;;;14.30;99.90;;;;;;4893053;29;19931;-83
2021/10/05 17:29:25;;;;;;;;;;;14.30;99.90;;;;;;5100934;27;19920;-81
2021/10/05 17:31:53;;;;;;;;;;;14.20;99.90;;;;;;5100338;28;19924;-83
2021/10/05 17:34:20;;;;;;;;;;;14.20;99.90;;;;;;5100332;28;19935;-84
2021/10/05 17:36:48;;;;;;;;;;;14.10;99.90;;;;;;5082000;28;19927;-84
2021/10/05 17:39:15;;;;;;;;;;;14.10;99.90;;;;;;5081520;28;19992;-82
2021/10/05 17:41:44;;;;;;;;;;;14.10;99.90;;;;;;5099869;27;19933;-82
2021/10/05 17:44:13;;;;;;;;;;;14.00;99.90;;;;;;5098417;28;19939;-81
2021/10/05 17:49:08;;;;;;;9.20;1.85;;;13.90;99.90;;;;;;5081456;27;20582;-83
2021/10/05 17:51:38;;;;;;;13.00;1.90;;;13.90;99.90;;;;;;5108020;28;20127;-81
2021/10/05 17:54:05;;;;;;;16.15;1.80;;;13.80;99.90;;;;;;5091624;28;20044;-81
2021/10/05 17:56:32;;;;;;;8.20;1.67;;;13.80;99.90;;;;;;5088842;28;21637;-83
2021/10/05 17:59:00;;;;;;;12.95;2.13;;;13.80;99.90;;;;;;5110715;28;20052;-83
2021/10/05 18:01:27;;;;;;;11.15;2.30;;;13.70;99.90;;;;;;5093605;28;20039;-83
2021/10/05 18:03:58;;;;;;;12.50;2.30;;;13.60;99.90;;;;;;5107471;28;20056;-82
2021/10/05 18:06:25;;;;;;;11.98;1.88;;;13.60;99.90;;;;;;5083885;28;20286;-84
2021/10/05 18:08:53;;;;;;;11.32;1.42;;;13.60;99.90;;;;;;5093253;27;20048;-83
2021/10/05 18:11:20;;;;;;;14.52;1.90;;;13.60;99.90;;;;;;5090140;28;20415;-84
2021/10/05 18:13:48;;;;;;;15.13;1.75;;;13.60;99.90;;;;;;5112872;28;20052;-82
2021/10/05 18:16:15;;;;;;;11.15;2.05;;;13.60;99.90;;;;;;5105443;28;20059;-82
2021/10/05 18:18:42;;;;;;;12.32;2.20;;;13.50;99.90;;;;;;5093467;28;20093;-83
2021/10/05 18:21:13;;;;;;;9.95;1.65;;;13.50;99.90;;;;;;5088400;28;20574;-83
2021/10/05 18:23:42;;;;;;;16.00;1.90;;;13.50;99.90;;;;;;5091214;28;20067;-84
2021/10/05 18:26:09;;;;;;;;;;;13.40;99.90;;;;;;5091671;28;20048;-80
2021/10/05 18:28:37;;;;;;;12.60;2.28;;;13.40;99.90;;;;;;5097596;27;19924;-81
2021/10/05 18:31:04;;;;;;;13.38;2.00;;;13.30;99.90;;;;;;5092436;28;20044;-81
2021/10/05 18:33:31;;;;;;;8.88;1.40;;;13.30;99.90;;;;;;5093340;27;20044;-81
2021/10/05 18:35:58;;;;;;;15.88;2.15;;;13.30;99.90;;;;;;5089973;28;20045;-82
2021/10/05 18:38:25;;;;;;;15.25;1.83;;;13.20;99.90;;;;;;5109811;28;20048;-82
2021/10/05 18:40:53;;;;;;;12.23;1.70;;;13.20;99.90;;;;;;5088155;28;20452;-83
2021/10/05 18:43:20;;;;;;;9.55;1.92;;;13.20;99.90;;;;;;5092961;28;20047;-84
2021/10/05 18:45:47;;;;;;;10.52;1.95;;;13.20;99.90;;;;;;5093896;28;20047;-83
2021/10/05 18:48:14;;;;;;;9.90;1.88;;;13.10;99.90;;;;;;5093748;27;21099;-84
2021/10/05 18:50:41;;;;;;;15.48;2.03;;;13.10;99.90;;;;;;5102610;28;20063;-83
2021/10/05 18:53:09;;;;;;;12.43;1.58;;;13.10;99.90;;;;;;5092306;28;20135;-86
2021/10/05 18:55:35;;;;;;;10.57;1.92;;;13.10;99.90;;;;;;5092217;28;20771;-82
2021/10/05 18:58:03;;;;;;;10.82;1.67;;;13.00;99.90;;;;;;5094243;28;20044;-84
2021/10/05 19:45:43;;;;;;;7.87;1.23;;;12.60;99.90;;;;;;6095899;22;1377181;-84
2021/10/05 19:48:10;;;;;;;10.88;1.75;;;12.60;99.90;;;;;;6148602;22;20025;-83
2021/10/05 19:50:37;;;;;;;7.47;1.13;;;12.50;99.90;;;;;;6147070;22;20173;-85
2021/10/05 19:53:04;;;;;;;8.57;1.30;;;12.50;99.90;;;;;;6146487;22;20025;-83
2021/10/05 19:55:34;;;;;;;14.38;1.33;;;12.50;99.90;;;;;;6143395;22;20328;-85
2021/10/05 19:58:02;;;;;;;9.50;1.42;;;12.40;99.90;;;;;;6148906;22;20029;-85
2021/10/05 20:00:29;;;;;;;13.80;1.60;;;12.40;99.90;;;;;;6147772;22;20517;-84
2021/10/05 20:02:56;;;;;;;9.95;1.70;;;12.40;99.90;;;;;;6148054;22;20041;-84
2021/10/05 20:05:28;;;;;;;10.17;1.53;;;12.30;99.90;;;;;;6145725;22;20029;-83
2021/10/05 20:07:58;;;;;;;10.50;1.50;;;12.30;99.90;;;;;;6145835;22;20025;-85
2021/10/05 20:10:26;;;;;;;13.70;1.58;;;12.30;99.90;;;;;;6145886;22;20029;-83
2021/10/05 20:12:55;;;;;;;9.07;1.45;;;12.20;99.90;;;;;;6147063;22;20024;-84
2021/10/05 20:15:23;;;;;;;10.60;1.48;;;12.20;99.90;;;;;;6145903;22;20022;-84
2021/10/05 20:17:50;;;;;;;10.60;1.55;;;12.20;99.90;;;;;;6146418;22;20024;-84
2021/10/05 20:20:19;;;;;;;10.48;1.30;;;12.20;99.90;;;;;;6145750;22;20025;-85
2021/10/05 20:22:46;;;;;;;7.90;1.60;;;12.20;99.90;;;;;;6141743;22;20028;-84
2021/10/05 20:25:13;;;;;;;12.32;2.05;;;12.10;99.90;;;;;;6138961;22;20017;-84
2021/10/05 20:27:40;;;;;;;12.63;1.40;;;12.10;99.90;;;;;;6138998;22;20017;-83
2021/10/05 20:30:08;;;;;;;9.18;1.85;;;12.10;99.90;;;;;;6138490;22;20091;-85
2021/10/05 20:32:35;;;;;;;12.13;1.60;;;12.10;99.90;;;;;;6139559;22;20017;-84
2021/10/05 20:35:03;;;;;;;12.45;1.92;;;12.10;99.90;;;;;;6143379;22;20104;-83
2021/10/05 20:37:30;;;;;;;15.23;1.90;;;12.10;99.90;;;;;;6142564;22;20028;-84
2021/10/05 20:39:57;;;;;;;9.15;1.45;;;12.10;99.90;;;;;;6143789;22;20017;-84
2021/10/05 20:42:24;;;;;;;13.32;1.95;;;12.10;99.90;;;;;;6141098;22;20037;-84
2021/10/05 20:44:51;;;;;;;8.75;1.48;;;12.10;99.90;;;;;;6154056;22;20025;-86
2021/10/05 20:47:18;;;;;;;9.10;1.65;;;12.10;99.90;;;;;;6147633;22;20025;-86
2021/10/05 20:49:45;;;;;;;14.45;2.10;;;12.10;99.90;;;;;;6143752;22;20026;-87
2021/10/05 20:52:12;;;;;;;16.15;2.13;;;12.10;99.90;;;;;;6139476;22;20048;-87
2021/10/05 20:54:39;;;;;;;13.48;1.77;;;12.10;99.90;;;;;;6143164;22;20017;-86
2021/10/05 20:57:07;;;;;;;14.82;1.98;;;12.10;99.90;;;;;;6145043;22;20061;-86
2021/10/05 20:59:34;;;;;;;11.70;2.10;;;12.10;99.90;;;;;;6143492;22;20337;-86
2021/10/05 21:02:01;;;;;;;11.52;1.85;;;12.10;99.90;;;;;;6146161;22;20033;-87
2021/10/05 21:04:28;;;;;;;12.38;1.85;;;12.10;99.90;;;;;;6149751;22;20026;-91
2021/10/05 21:06:55;;;;;;;11.45;2.05;;;12.00;99.90;;;;;;6151070;22;20071;-88
2021/10/05 21:09:22;;;;;;;16.48;2.00;;;12.00;99.90;;;;;;6149215;22;20021;-87
2021/10/05 21:11:49;;;;;;;15.32;2.05;;;12.00;99.90;;;;;;6151580;22;20021;-87
2021/10/05 21:14:19;;;;;;;12.57;2.17;;;12.00;99.90;;;;;;6150559;22;20042;-87
2021/10/05 21:16:46;;;;;;;10.00;1.60;;;12.00;99.90;;;;;;6150376;22;20101;-87
2021/10/05 21:19:13;;;;;;;9.85;1.73;;;12.00;99.90;;;;;;6150982;22;20051;-86
2021/10/05 21:21:40;;;;;;;10.57;1.70;;;12.10;99.90;;;;;;6150464;22;20063;-87
2021/10/05 21:24:07;;;;;;;13.05;1.80;;;12.10;99.90;;;;;;6150973;22;20029;-87
2021/10/05 21:26:34;;;;;;;11.25;1.55;;;12.00;99.90;;;;;;6149276;22;20022;-88
2021/10/05 21:29:01;;;;;;;14.75;1.75;;;12.10;99.90;;;;;;6150925;22;20013;-86
2021/10/05 21:31:28;;;;;;;13.65;1.73;;;12.10;99.90;;;;;;6148416;22;20192;-87
2021/10/05 21:33:55;;;;;;;9.50;1.60;;;12.10;99.90;;;;;;6150697;22;20038;-87
2021/10/05 21:36:22;;;;;;;10.68;1.77;;;12.10;99.90;;;;;;6151145;22;20021;-86
2021/10/05 21:38:49;;;;;;;9.40;1.77;;;12.10;99.90;;;;;;6152013;22;20082;-88
2021/10/05 21:41:16;;;;;;;13.98;1.60;;;12.10;99.90;;;;;;6150873;22;20021;-88
2021/10/05 21:43:43;;;;;;;16.85;2.35;;;12.00;99.90;;;;;;6151724;22;20086;-87
2021/10/05 21:46:10;;;;;;;11.27;2.08;;;12.00;99.90;;;;;;6149797;22;20079;-87
2021/10/05 21:48:37;;;;;;;9.35;1.77;;;12.00;99.90;;;;;;6151488;22;20025;-87
2021/10/05 21:51:04;;;;;;;15.85;1.90;;;12.00;99.90;;;;;;6151517;22;20029;-85
2021/10/05 21:53:32;;;;;;;7.88;1.35;;;12.00;99.90;;;;;;6149181;22;20348;-88
2021/10/05 21:55:59;;;;;;;14.27;1.60;;;11.90;99.90;;;;;;6149291;22;20022;-87
2021/10/05 21:58:26;;;;;;;9.77;1.58;;;11.90;99.90;;;;;;6146704;22;20018;-88
